createdAt,value
2022-08-12T00:00:36.604Z,100843.00
2022-08-12T00:03:23.007Z,100845.00
2022-08-12T00:06:09.876Z,100844.00
2022-08-12T00:08:57.949Z,100838.00
2022-08-12T00:11:45.445Z,100831.00
2022-08-12T00:14:32.388Z,100838.00
2022-08-12T00:17:22.820Z,100832.00
2022-08-12T00:20:09.822Z,100832.00
2022-08-12T00:22:59.023Z,100844.00
2022-08-12T00:26:21.401Z,100837.00
2022-08-12T00:29:02.714Z,100833.00
2022-08-12T00:31:49.167Z,100837.00
2022-08-12T00:34:37.430Z,100837.00
2022-08-12T00:37:24.527Z,100839.00
2022-08-12T00:40:11.994Z,100844.00
2022-08-12T00:42:41.822Z,100834.00
2022-08-12T00:45:13.264Z,100839.00
2022-08-12T00:47:42.349Z,100844.00
2022-08-12T00:50:18.947Z,100835.00
2022-08-12T00:52:49.828Z,100849.00
2022-08-12T00:55:20.090Z,100844.00
2022-08-12T00:57:50.923Z,100838.00
2022-08-12T01:00:22.625Z,100836.00
2022-08-12T01:02:58.234Z,100844.00
2022-08-12T01:05:46.334Z,100844.00
2022-08-12T01:08:32.504Z,100844.00
2022-08-12T01:11:33.221Z,100838.00
2022-08-12T01:14:03.214Z,100847.00
2022-08-12T01:16:32.440Z,100839.00
2022-08-12T01:19:03.903Z,100853.00
2022-08-12T01:22:04.748Z,100845.00
2022-08-12T01:24:59.230Z,100852.00
2022-08-12T01:27:30.213Z,100846.00
2022-08-12T01:30:01.899Z,100849.00
2022-08-12T01:32:35.243Z,100853.00
2022-08-12T01:35:07.086Z,100848.00
2022-08-12T01:37:43.119Z,100847.00
2022-08-12T01:40:36.918Z,100849.00
2022-08-12T01:43:09.194Z,100844.00
2022-08-12T01:45:43.882Z,100835.00
2022-08-12T01:48:21.061Z,100831.00
2022-08-12T01:51:06.270Z,100828.00
2022-08-12T01:53:50.331Z,100834.00
2022-08-12T01:56:26.019Z,100827.00
2022-08-12T01:59:15.882Z,100822.00
2022-08-12T02:01:48.062Z,100826.00
2022-08-12T02:04:42.518Z,100833.00
2022-08-12T02:07:42.479Z,100822.00
2022-08-12T02:10:52.297Z,100816.00
2022-08-12T02:13:49.157Z,100812.00
2022-08-12T02:16:30.522Z,100810.00
2022-08-12T02:19:16.133Z,100816.00
2022-08-12T02:22:00.085Z,100810.00
2022-08-12T02:24:35.532Z,100813.00
2022-08-12T02:27:06.729Z,100802.00
2022-08-12T02:29:37.681Z,100804.00
2022-08-12T02:32:07.139Z,100804.00
2022-08-12T02:34:36.385Z,100805.00
2022-08-12T02:37:06.086Z,100810.00
2022-08-12T02:39:37.997Z,100802.00
2022-08-12T02:42:07.940Z,100804.00
2022-08-12T02:44:41.587Z,100811.00
2022-08-12T02:47:58.750Z,100802.00
2022-08-12T02:50:03.451Z,100794.00
2022-08-12T02:52:34.167Z,100802.00
2022-08-12T02:55:13.087Z,100800.00
2022-08-12T02:57:59.560Z,100800.00
2022-08-12T03:00:37.964Z,100798.00
2022-08-12T03:03:09.127Z,100790.00
2022-08-12T03:05:44.564Z,100791.00
2022-08-12T03:08:26.773Z,100786.00
2022-08-12T03:11:07.872Z,100789.00
2022-08-12T03:13:46.684Z,100792.00
2022-08-12T03:16:16.948Z,100792.00
2022-08-12T03:18:46.424Z,100790.00
2022-08-12T03:21:56.527Z,100793.00
2022-08-12T03:24:09.301Z,100787.00
2022-08-12T03:26:38.959Z,100788.00
2022-08-12T03:29:08.358Z,100783.00
2022-08-12T03:31:38.356Z,100780.00
2022-08-12T03:34:09.593Z,100783.00
2022-08-12T03:36:40.787Z,100786.00
2022-08-12T03:39:35.966Z,100790.00
2022-08-12T03:42:12.724Z,100785.00
2022-08-12T03:45:05.605Z,100785.00
2022-08-12T03:47:59.574Z,100788.00
2022-08-12T03:50:46.444Z,100798.00
2022-08-12T03:53:35.967Z,100804.00
2022-08-12T03:56:22.387Z,100804.00
2022-08-12T03:59:08.761Z,100812.00
2022-08-12T04:01:40.677Z,100820.00
2022-08-12T04:04:12.229Z,100832.00
2022-08-12T04:06:45.952Z,100822.00
2022-08-12T04:09:16.124Z,100822.00
2022-08-12T04:12:09.937Z,100827.00
2022-08-12T04:14:40.478Z,100829.00
2022-08-12T04:17:09.712Z,100827.00
2022-08-12T04:19:40.178Z,100839.00
2022-08-12T04:22:09.967Z,100843.00
2022-08-12T04:24:40.899Z,100825.00
2022-08-12T04:27:11.883Z,100837.00
2022-08-12T04:30:29.374Z,100835.00
2022-08-12T04:32:29.811Z,100832.00
2022-08-12T04:34:59.802Z,100833.00
2022-08-12T04:37:28.562Z,100835.00
2022-08-12T04:40:17.342Z,100832.00
2022-08-12T04:42:57.340Z,100822.00
2022-08-12T04:45:26.080Z,100825.00
2022-08-12T04:47:54.781Z,100827.00
2022-08-12T04:50:34.556Z,100817.00
2022-08-12T04:53:06.451Z,100823.00
2022-08-12T04:55:35.802Z,100818.00
2022-08-12T04:58:04.598Z,100823.00
2022-08-12T05:00:33.276Z,100816.00
2022-08-12T05:03:02.056Z,100825.00
2022-08-12T05:05:36.092Z,100832.00
2022-08-12T05:08:07.959Z,100835.00
2022-08-12T05:10:36.689Z,100828.00
2022-08-12T05:13:08.814Z,100831.00
2022-08-12T05:16:04.716Z,100837.00
2022-08-12T05:18:29.119Z,100837.00
2022-08-12T05:21:00.360Z,100847.00
2022-08-12T05:23:32.122Z,100844.00
2022-08-12T05:26:01.190Z,100847.00
2022-08-12T05:28:31.026Z,100852.00
2022-08-12T05:31:01.900Z,100856.00
2022-08-12T05:33:38.420Z,100855.00
2022-08-12T05:36:10.353Z,100863.00
2022-08-12T05:38:56.452Z,100864.00
2022-08-12T05:41:25.835Z,100865.00
2022-08-12T05:43:57.122Z,100871.00
2022-08-12T05:46:27.412Z,100873.00
2022-08-12T05:48:56.989Z,100878.00
2022-08-12T05:51:39.892Z,100878.00
2022-08-12T05:54:10.535Z,100874.00
2022-08-12T05:56:40.134Z,100886.00
2022-08-12T05:59:11.122Z,100888.00
2022-08-12T06:02:11.317Z,100896.00
2022-08-12T06:04:30.191Z,100887.00
2022-08-12T06:07:01.846Z,100897.00
2022-08-12T06:09:31.095Z,100889.00
2022-08-12T06:12:05.496Z,100895.00
2022-08-12T06:14:39.057Z,100889.00
2022-08-12T06:17:09.085Z,100900.00
2022-08-12T06:20:27.263Z,100896.00
2022-08-12T06:22:28.136Z,100906.00
2022-08-12T06:24:56.851Z,100904.00
2022-08-12T06:27:25.458Z,100904.00
2022-08-12T06:30:08.388Z,100904.00
2022-08-12T06:32:47.530Z,100908.00
2022-08-12T06:35:25.657Z,100902.00
2022-08-12T06:38:18.450Z,100906.00
2022-08-12T06:41:02.446Z,100903.00
2022-08-12T06:44:05.959Z,100900.00
2022-08-12T06:46:19.889Z,100901.00
2022-08-12T06:48:48.670Z,100901.00
2022-08-12T06:51:20.759Z,100905.00
2022-08-12T06:53:53.050Z,100904.00
2022-08-12T06:56:30.465Z,100913.00
2022-08-12T06:59:09.373Z,100911.00
2022-08-12T07:01:38.523Z,100904.00
2022-08-12T07:04:33.867Z,100906.00
2022-08-12T07:06:56.088Z,100900.00
2022-08-12T07:10:04.583Z,100898.00
2022-08-12T07:12:20.003Z,100896.00
2022-08-12T07:14:51.583Z,100898.00
2022-08-12T07:17:20.617Z,100901.00
2022-08-12T07:19:50.106Z,100893.00
2022-08-12T07:22:19.056Z,100893.00
2022-08-12T07:25:09.181Z,100891.00
2022-08-12T07:27:41.004Z,100891.00
2022-08-12T07:30:11.095Z,100891.00
2022-08-12T07:32:40.373Z,100889.00
2022-08-12T07:35:09.821Z,100890.00
2022-08-12T07:37:42.743Z,100899.00
2022-08-12T07:40:14.372Z,100895.00
2022-08-12T07:42:44.638Z,100900.00
2022-08-12T07:45:13.977Z,100900.00
2022-08-12T07:47:43.856Z,100897.00
2022-08-12T07:50:14.089Z,100902.00
2022-08-12T07:52:44.755Z,100898.00
2022-08-12T07:55:16.717Z,100902.00
2022-08-12T07:57:54.326Z,100901.00
2022-08-12T08:00:23.257Z,100902.00
2022-08-12T08:02:54.317Z,100897.00
2022-08-12T08:05:25.143Z,100889.00
2022-08-12T08:07:56.368Z,100894.00
2022-08-12T08:10:26.398Z,100893.00
2022-08-12T08:12:54.148Z,100889.00
2022-08-12T08:15:44.603Z,100887.00
2022-08-12T08:18:20.290Z,100883.00
2022-08-12T08:20:56.278Z,100882.00
2022-08-12T08:23:46.967Z,100891.00
2022-08-12T08:26:27.314Z,100886.00
2022-08-12T08:28:57.029Z,100885.00
2022-08-12T08:31:25.749Z,100879.00
2022-08-12T08:34:09.118Z,100881.00
2022-08-12T08:36:39.388Z,100880.00
2022-08-12T08:39:08.510Z,100876.00
2022-08-12T08:42:17.517Z,100887.00
2022-08-12T08:44:44.988Z,100876.00
2022-08-12T08:47:14.448Z,100874.00
2022-08-12T08:49:43.158Z,100876.00
2022-08-12T08:52:13.544Z,100864.00
2022-08-12T08:55:02.186Z,100879.00
2022-08-12T08:57:44.166Z,100869.00
2022-08-12T09:00:15.913Z,100861.00
2022-08-12T09:02:49.059Z,100861.00
2022-08-12T09:05:43.035Z,100862.00
2022-08-12T09:08:26.724Z,100865.00
2022-08-12T09:11:00.034Z,100851.00
2022-08-12T09:16:20.734Z,100855.00
2022-08-12T09:18:52.607Z,100870.00
2022-08-12T09:21:24.958Z,100867.00
2022-08-12T09:26:51.293Z,100859.00
2022-08-12T09:30:10.072Z,100854.00
2022-08-12T09:32:56.008Z,100861.00
2022-08-12T09:35:02.902Z,100851.00
2022-08-12T09:37:57.952Z,100849.00
2022-08-12T09:41:01.296Z,100857.00
2022-08-12T09:43:28.771Z,100857.00
2022-08-12T09:46:06.219Z,100858.00
2022-08-12T09:48:56.461Z,100852.00
2022-08-12T09:51:37.553Z,100845.00
2022-08-12T09:54:30.840Z,100851.00
2022-08-12T09:57:01.707Z,100848.00
2022-08-12T10:00:15.620Z,100839.00
2022-08-12T10:02:45.601Z,100844.00
2022-08-12T10:05:17.877Z,100837.00
2022-08-12T10:07:49.606Z,100826.00
2022-08-12T10:10:22.903Z,100837.00
2022-08-12T10:13:20.539Z,100828.00
2022-08-12T10:16:05.674Z,100829.00
2022-08-12T10:18:52.283Z,100814.00
2022-08-12T10:21:36.103Z,100821.00
2022-08-12T10:24:08.506Z,100806.00
2022-08-12T10:26:57.904Z,100805.00
2022-08-12T10:30:03.195Z,100806.00
2022-08-12T10:32:44.039Z,100808.00
2022-08-12T10:35:18.859Z,100800.00
2022-08-12T10:38:36.524Z,100803.00
2022-08-12T10:41:00.299Z,100802.00
2022-08-12T10:43:55.795Z,100795.00
2022-08-12T10:46:31.037Z,100791.00
2022-08-12T10:49:06.480Z,100784.00
2022-08-12T10:52:47.303Z,100775.00
2022-08-12T10:54:59.483Z,100771.00
2022-08-12T10:58:12.584Z,100784.00
2022-08-12T11:00:30.363Z,100779.00
2022-08-12T11:04:28.003Z,100771.00
2022-08-12T11:07:09.299Z,100770.00
2022-08-12T11:08:46.397Z,100772.00
2022-08-12T11:12:35.904Z,100769.00
2022-08-12T11:14:48.246Z,100764.00
2022-08-12T11:17:35.019Z,100753.00
2022-08-12T11:19:50.268Z,100765.00
2022-08-12T11:22:24.027Z,100763.00
2022-08-12T11:24:55.419Z,100757.00
2022-08-12T11:27:24.435Z,100757.00
2022-08-12T11:30:05.639Z,100760.00
2022-08-12T11:32:38.935Z,100757.00
2022-08-12T11:35:11.701Z,100762.00
2022-08-12T11:37:58.769Z,100765.00
2022-08-12T11:40:31.652Z,100758.00
2022-08-12T11:43:19.696Z,100758.00
2022-08-12T11:45:52.985Z,100754.00
2022-08-12T11:48:26.791Z,100750.00
2022-08-12T11:50:56.785Z,100751.00
2022-08-12T11:53:59.187Z,100748.00
2022-08-12T11:56:16.569Z,100753.00
2022-08-12T12:01:58.664Z,100755.00
2022-08-12T12:02:00.777Z,100745.00
2022-08-12T12:04:31.253Z,100733.00
2022-08-12T12:07:07.178Z,100743.00
2022-08-12T12:09:52.658Z,100739.00
2022-08-12T12:12:25.213Z,100739.00
2022-08-12T12:14:55.826Z,100743.00
2022-08-12T12:17:25.657Z,100740.00
2022-08-12T12:19:55.471Z,100733.00
2022-08-12T12:22:27.226Z,100732.00
2022-08-12T12:25:12.629Z,100724.00
2022-08-12T12:28:05.365Z,100730.00
2022-08-12T12:30:36.058Z,100734.00
2022-08-12T12:33:07.687Z,100721.00
2022-08-12T12:36:17.123Z,100717.00
2022-08-12T12:38:28.505Z,100717.00
2022-08-12T12:40:58.444Z,100713.00
2022-08-12T12:43:43.134Z,100715.00
2022-08-12T12:46:14.078Z,100710.00
2022-08-12T12:48:47.376Z,100712.00
2022-08-12T12:52:02.001Z,100701.00
2022-08-12T12:54:16.173Z,100708.00
2022-08-12T12:56:50.628Z,100706.00
2022-08-12T12:59:33.851Z,100704.00
2022-08-12T13:02:13.775Z,100700.00
2022-08-12T13:05:01.159Z,100698.00
2022-08-12T13:07:54.522Z,100702.00
2022-08-12T13:10:23.915Z,100687.00
2022-08-12T13:12:53.577Z,100696.00
2022-08-12T13:15:45.136Z,100679.00
2022-08-12T13:18:16.438Z,100687.00
2022-08-12T13:20:47.199Z,100680.00
2022-08-12T13:23:36.833Z,100680.00
2022-08-12T13:26:14.218Z,100682.00
2022-08-12T13:28:53.130Z,100677.00
2022-08-12T13:31:27.227Z,100676.00
2022-08-12T13:34:33.360Z,100656.00
2022-08-12T13:36:47.595Z,100661.00
2022-08-12T13:39:17.080Z,100648.00
2022-08-12T13:41:46.188Z,100651.00
2022-08-12T13:44:19.016Z,100662.00
2022-08-12T13:46:58.950Z,100658.00
2022-08-12T13:49:54.007Z,100645.00
2022-08-12T13:52:20.351Z,100648.00
2022-08-12T13:54:55.875Z,100658.00
2022-08-12T13:57:26.713Z,100652.00
2022-08-12T14:00:00.863Z,100651.00
2022-08-12T14:02:37.359Z,100641.00
2022-08-12T14:05:31.458Z,100641.00
2022-08-12T14:08:01.747Z,100637.00
2022-08-12T14:10:38.299Z,100640.00
2022-08-12T14:13:16.999Z,100634.00
2022-08-12T14:16:04.997Z,100635.00
2022-08-12T14:18:39.136Z,100636.00
2022-08-12T14:21:12.456Z,100636.00
2022-08-12T14:24:05.206Z,100612.00
2022-08-12T14:26:41.210Z,100634.00
2022-08-12T14:29:21.597Z,100624.00
2022-08-12T14:32:00.577Z,100620.00
2022-08-12T14:34:36.740Z,100621.00
2022-08-12T14:37:13.149Z,100614.00
2022-08-12T14:39:58.616Z,100616.00
2022-08-12T14:42:28.515Z,100608.00
2022-08-12T14:45:01.074Z,100610.00
2022-08-12T14:47:34.986Z,100601.00
2022-08-12T14:50:58.522Z,100608.00
2022-08-12T14:59:00.040Z,100596.00
2022-08-12T15:01:47.524Z,100599.00
2022-08-12T15:04:17.357Z,100586.00
2022-08-12T15:06:52.548Z,100590.00
2022-08-12T15:09:28.821Z,100588.00
2022-08-12T15:12:03.122Z,100590.00
2022-08-12T15:14:35.293Z,100582.00
2022-08-12T15:17:07.005Z,100581.00
2022-08-12T15:20:31.888Z,100589.00
2022-08-12T15:22:37.786Z,100576.00
2022-08-12T15:25:09.044Z,100582.00
2022-08-12T15:28:03.650Z,100587.00
2022-08-12T15:30:32.548Z,100580.00
2022-08-12T15:33:14.811Z,100582.00
2022-08-12T15:35:50.220Z,100578.00
2022-08-12T15:38:27.143Z,100575.00
2022-08-12T15:40:59.083Z,100580.00
2022-08-12T15:43:51.594Z,100580.00
2022-08-12T15:46:25.541Z,100574.00
2022-08-12T15:48:55.505Z,100566.00
2022-08-12T15:51:58.239Z,100574.00
2022-08-12T15:54:33.168Z,100569.00
2022-08-12T15:57:07.563Z,100577.00
2022-08-12T16:00:04.545Z,100570.00
2022-08-12T16:02:29.476Z,100569.00
2022-08-12T16:04:58.825Z,100580.00
2022-08-12T16:07:31.284Z,100581.00
2022-08-12T16:10:09.064Z,100575.00
2022-08-12T16:12:43.348Z,100570.00
2022-08-12T16:15:23.499Z,100568.00
2022-08-12T16:18:17.860Z,100568.00
2022-08-12T16:20:46.788Z,100575.00
2022-08-12T16:23:36.043Z,100568.00
2022-08-12T16:26:15.072Z,100567.00
2022-08-12T16:28:47.430Z,100555.00
2022-08-12T16:31:23.357Z,100565.00
2022-08-12T16:33:58.707Z,100559.00
2022-08-12T16:36:29.958Z,100562.00
2022-08-12T16:39:01.741Z,100552.00
2022-08-12T16:41:39.740Z,100556.00
2022-08-12T16:44:09.230Z,100554.00
2022-08-12T16:46:38.185Z,100558.00
2022-08-12T16:49:13.339Z,100549.00
2022-08-12T16:51:46.877Z,100546.00
2022-08-12T16:54:18.660Z,100555.00
2022-08-12T16:56:54.473Z,100541.00
2022-08-12T16:59:25.572Z,100540.00
2022-08-12T17:01:55.110Z,100538.00
2022-08-12T17:04:24.283Z,100529.00
2022-08-12T17:06:53.648Z,100526.00
2022-08-12T17:09:22.457Z,100524.00
2022-08-12T17:11:52.884Z,100527.00
2022-08-12T17:14:24.781Z,100522.00
2022-08-12T17:16:55.419Z,100527.00
2022-08-12T17:20:30.506Z,100519.00
2022-08-12T17:22:16.401Z,100518.00
2022-08-12T17:24:54.985Z,100517.00
2022-08-12T17:27:26.581Z,100520.00
2022-08-12T17:30:11.655Z,100508.00
2022-08-12T17:32:44.206Z,100507.00
2022-08-12T17:35:36.806Z,100510.00
2022-08-12T17:38:11.883Z,100513.00
2022-08-12T17:40:41.792Z,100513.00
2022-08-12T17:43:56.220Z,100518.00
2022-08-12T17:46:02.929Z,100525.00
2022-08-12T17:48:34.344Z,100527.00
2022-08-12T17:51:07.114Z,100529.00
2022-08-12T17:54:06.282Z,100530.00
2022-08-12T17:56:32.013Z,100533.00
2022-08-12T17:59:03.466Z,100525.00
2022-08-12T18:01:36.868Z,100531.00
2022-08-12T18:04:21.888Z,100538.00
2022-08-12T18:06:52.654Z,100538.00
2022-08-12T18:09:32.015Z,100537.00
2022-08-12T18:12:24.673Z,100538.00
2022-08-12T18:15:00.595Z,100542.00
2022-08-12T18:17:32.399Z,100544.00
2022-08-12T18:20:07.971Z,100542.00
2022-08-12T18:22:38.657Z,100537.00
2022-08-12T18:26:10.093Z,100543.00
2022-08-12T18:28:15.496Z,100550.00
2022-08-12T18:30:53.504Z,100551.00
2022-08-12T18:33:25.628Z,100546.00
2022-08-12T18:35:57.053Z,100553.00
2022-08-12T18:38:27.935Z,100549.00
2022-08-12T18:41:21.663Z,100563.00
2022-08-12T18:44:02.571Z,100554.00
2022-08-12T18:46:54.006Z,100566.00
2022-08-12T18:49:31.871Z,100566.00
2022-08-12T18:52:05.555Z,100561.00
2022-08-12T18:54:52.904Z,100566.00
2022-08-12T18:58:06.019Z,100565.00
2022-08-12T19:00:21.042Z,100566.00
2022-08-12T19:02:53.814Z,100555.00
2022-08-12T19:05:45.809Z,100569.00
2022-08-12T19:08:13.716Z,100566.00
2022-08-12T19:10:49.944Z,100563.00
2022-08-12T19:13:45.830Z,100571.00
2022-08-12T19:16:26.686Z,100575.00
2022-08-12T19:18:57.459Z,100576.00
2022-08-12T19:21:26.575Z,100575.00
2022-08-12T19:24:09.130Z,100570.00
2022-08-12T19:26:38.616Z,100578.00
2022-08-12T19:29:08.613Z,100576.00
2022-08-12T19:31:56.443Z,100575.00
2022-08-12T19:35:32.906Z,100578.00
2022-08-12T19:37:27.154Z,100572.00
2022-08-12T19:40:09.286Z,100572.00
2022-08-12T19:42:57.752Z,100570.00
2022-08-12T19:45:43.602Z,100568.00
2022-08-12T19:48:19.863Z,100576.00
2022-08-12T19:50:56.695Z,100574.00
2022-08-12T19:53:29.992Z,100570.00
2022-08-12T19:56:10.285Z,100570.00
2022-08-12T19:58:38.908Z,100571.00
2022-08-12T20:01:11.597Z,100574.00
2022-08-12T20:03:41.345Z,100564.00
2022-08-12T20:06:21.774Z,100579.00
2022-08-12T20:08:56.559Z,100571.00
2022-08-12T20:12:09.643Z,100575.00
2022-08-12T20:14:17.901Z,100575.00
2022-08-12T20:16:51.794Z,100580.00
2022-08-12T20:19:23.418Z,100573.00
2022-08-12T20:21:54.931Z,100579.00
2022-08-12T20:24:23.783Z,100573.00
2022-08-12T20:27:00.251Z,100582.00
2022-08-12T20:29:35.637Z,100573.00
2022-08-12T20:32:05.971Z,100574.00
2022-08-12T20:34:39.007Z,100577.00
2022-08-12T20:37:10.392Z,100583.00
2022-08-12T20:39:55.913Z,100575.00
2022-08-12T20:42:31.322Z,100578.00
2022-08-12T20:45:00.805Z,100575.00
2022-08-12T20:47:42.134Z,100571.00
2022-08-12T20:50:21.137Z,100577.00
2022-08-12T20:52:57.496Z,100576.00
2022-08-12T20:55:42.080Z,100579.00
2022-08-12T20:58:12.404Z,100586.00
2022-08-12T21:00:41.391Z,100572.00
2022-08-12T21:03:27.461Z,100578.00
2022-08-12T21:06:14.251Z,100577.00
2022-08-12T21:08:44.893Z,100577.00
2022-08-12T21:11:13.480Z,100577.00
2022-08-12T21:13:42.452Z,100574.00
2022-08-12T21:16:12.152Z,100582.00
2022-08-12T21:18:50.587Z,100575.00
2022-08-12T21:21:23.200Z,100589.00
2022-08-12T21:23:56.570Z,100573.00
2022-08-12T21:26:28.329Z,100574.00
2022-08-12T21:29:01.888Z,100571.00
2022-08-12T21:32:40.228Z,100572.00
2022-08-12T21:34:29.376Z,100572.00
2022-08-12T21:37:26.477Z,100582.00
2022-08-12T21:39:56.407Z,100575.00
2022-08-12T21:42:27.792Z,100588.00
2022-08-12T21:45:46.458Z,100567.00
2022-08-12T21:47:46.911Z,100575.00
2022-08-12T21:50:22.006Z,100581.00
2022-08-12T21:52:57.994Z,100576.00
2022-08-12T21:55:28.903Z,100579.00
2022-08-12T21:58:10.933Z,100581.00
2022-08-12T22:00:40.143Z,100579.00
2022-08-12T22:04:03.524Z,100577.00
2022-08-12T22:06:30.942Z,100586.00
2022-08-12T22:09:15.304Z,100586.00
2022-08-12T22:11:49.048Z,100589.00
2022-08-12T22:14:25.655Z,100586.00
2022-08-12T22:16:55.735Z,100581.00
2022-08-12T22:19:24.507Z,100575.00
2022-08-12T22:21:58.614Z,100587.00
2022-08-12T22:24:30.512Z,100578.00
2022-08-12T22:27:22.890Z,100583.00
2022-08-12T22:30:07.908Z,100571.00
2022-08-12T22:32:47.373Z,100581.00
2022-08-12T22:35:47.505Z,100576.00
2022-08-12T22:38:24.772Z,100582.00
2022-08-12T22:40:55.439Z,100576.00
2022-08-12T22:44:00.738Z,100586.00
2022-08-12T22:46:53.077Z,100586.00
2022-08-12T22:49:36.413Z,100582.00
2022-08-12T22:52:11.230Z,100576.00
2022-08-12T22:54:46.385Z,100583.00
2022-08-12T22:57:49.049Z,100579.00
2022-08-12T23:00:24.666Z,100587.00
2022-08-12T23:03:02.886Z,100580.00
2022-08-12T23:05:36.817Z,100575.00
2022-08-12T23:08:22.669Z,100579.00
2022-08-12T23:10:51.684Z,100575.00
2022-08-12T23:13:43.435Z,100582.00
2022-08-12T23:16:27.764Z,100570.00
2022-08-12T23:19:01.685Z,100577.00
2022-08-12T23:22:06.630Z,100576.00
2022-08-12T23:24:31.172Z,100583.00
2022-08-12T23:27:18.269Z,100589.00
2022-08-12T23:30:16.664Z,100587.00
2022-08-12T23:32:38.417Z,100591.00
2022-08-12T23:35:08.718Z,100590.00
2022-08-12T23:37:47.637Z,100588.00
2022-08-12T23:40:24.712Z,100586.00
2022-08-12T23:42:57.440Z,100588.00
2022-08-12T23:45:31.534Z,100588.00
2022-08-12T23:48:07.287Z,100581.00
2022-08-12T23:50:36.209Z,100579.00
2022-08-12T23:53:06.485Z,100581.00
2022-08-12T23:55:45.441Z,100579.00
2022-08-12T23:58:20.990Z,100565.00
